Time;durP1;ratioP1;P1;durP2;ratioP2;P2;SDS_P1;SDS_P2;PMS_P1;PMS_P2;Temp;Humidity;BMP_temperature;BMP_pressure;BME280_temperature;BME280_humidity;BME280_pressure;Samples;Min_cycle;Max_cycle;Signal;HPM_P1;HPM_P2
2022/10/19 00:00:44;;;;;;;1.95;1.27;;;24.00;59.50;;;;;;4998905;28;20145;-70
2022/10/19 00:03:09;;;;;;;1.85;1.30;;;24.00;59.60;;;;;;4998665;28;20046;-70
2022/10/19 00:05:35;;;;;;;2.00;1.20;;;24.00;59.60;;;;;;4992791;28;20018;-70
2022/10/19 00:08:01;;;;;;;1.90;1.20;;;24.00;59.60;;;;;;4988435;28;20118;-70
2022/10/19 00:10:27;;;;;;;1.85;1.17;;;24.00;59.60;;;;;;4969349;28;20085;-70
2022/10/19 00:12:52;;;;;;;1.80;1.20;;;24.00;59.60;;;;;;4996653;28;20478;-70
2022/10/19 00:15:18;;;;;;;2.38;1.40;;;24.00;59.60;;;;;;4996352;28;20050;-70
2022/10/19 00:17:44;;;;;;;2.10;1.30;;;24.00;59.60;;;;;;4987381;28;20046;-70
2022/10/19 00:20:10;;;;;;;1.58;1.15;;;24.00;59.60;;;;;;4990939;28;20034;-70
2022/10/19 00:22:36;;;;;;;1.67;1.23;;;24.00;59.60;;;;;;4992711;28;20061;-70
2022/10/19 00:25:02;;;;;;;1.73;1.15;;;24.00;59.60;;;;;;4998685;28;20493;-70
2022/10/19 00:27:28;;;;;;;1.73;1.23;;;24.00;59.60;;;;;;4988244;28;20026;-70
2022/10/19 00:29:53;;;;;;;2.25;1.23;;;24.00;59.60;;;;;;4998523;28;20088;-70
2022/10/19 00:32:19;;;;;;;2.88;1.40;;;23.90;59.60;;;;;;4996247;28;20504;-70
2022/10/19 00:34:44;;;;;;;1.77;1.10;;;23.90;59.60;;;;;;4995694;28;20034;-70
2022/10/19 00:37:10;;;;;;;1.80;1.10;;;23.90;59.60;;;;;;4997513;28;20446;-71
2022/10/19 00:39:36;;;;;;;2.00;1.20;;;24.00;59.60;;;;;;4998679;28;20109;-71
2022/10/19 00:42:02;;;;;;;2.05;1.35;;;23.90;59.60;;;;;;4991403;28;20077;-70
2022/10/19 00:44:28;;;;;;;2.03;1.20;;;23.90;59.60;;;;;;4993455;28;20457;-70
2022/10/19 00:46:59;;;;;;;1.65;1.10;;;23.90;59.60;;;;;;4988962;28;20027;-70
2022/10/19 00:49:38;;;;;;;1.45;1.00;;;23.90;59.60;;;;;;4996413;28;20041;-70
2022/10/19 00:52:09;;;;;;;1.70;1.17;;;23.90;59.60;;;;;;4994178;28;20042;-70
2022/10/19 00:54:38;;;;;;;2.10;1.30;;;23.90;59.60;;;;;;4978350;28;20035;-70
2022/10/19 00:57:05;;;;;;;2.03;1.15;;;23.90;59.60;;;;;;4982386;28;20070;-70
2022/10/19 00:59:31;;;;;;;1.85;1.30;;;23.90;59.60;;;;;;4980330;28;20447;-70
2022/10/19 01:01:58;;;;;;;1.85;1.20;;;23.90;59.60;;;;;;4993119;28;20026;-70
2022/10/19 01:04:25;;;;;;;1.55;1.10;;;23.90;59.60;;;;;;5002891;28;20113;-70
2022/10/19 01:06:53;;;;;;;2.08;1.30;;;23.90;59.60;;;;;;5001846;28;20414;-70
2022/10/19 01:09:18;;;;;;;2.28;1.10;;;23.90;59.60;;;;;;4980605;28;20485;-70
2022/10/19 01:12:02;;;;;;;1.58;1.17;;;23.90;59.60;;;;;;5001928;28;20033;-71
2022/10/19 01:14:36;;;;;;;1.67;1.05;;;23.90;59.60;;;;;;5002660;28;20113;-70
2022/10/19 01:17:20;;;;;;;2.05;1.30;;;23.90;59.60;;;;;;4984664;28;20034;-70
2022/10/19 01:20:04;;;;;;;2.03;1.20;;;23.90;59.60;;;;;;4998175;28;20511;-70
2022/10/19 01:22:51;;;;;;;1.77;1.10;;;23.90;59.60;;;;;;4999183;28;20416;-70
2022/10/19 01:25:38;;;;;;;2.05;1.30;;;23.90;59.70;;;;;;4998732;28;20019;-70
2022/10/19 01:28:37;;;;;;;1.67;1.10;;;23.90;59.70;;;;;;4997132;28;20428;-70
2022/10/19 01:31:30;;;;;;;2.08;1.15;;;23.90;59.70;;;;;;4994946;28;20050;-70
2022/10/19 01:34:19;;;;;;;1.17;0.98;;;23.80;59.60;;;;;;4998641;28;20607;-70
2022/10/19 01:37:09;;;;;;;2.10;1.27;;;23.80;59.60;;;;;;4991316;28;20026;-70
2022/10/19 01:39:51;;;;;;;1.50;1.10;;;23.80;59.60;;;;;;4977809;28;20548;-70
2022/10/19 01:42:29;;;;;;;1.20;1.00;;;23.80;59.60;;;;;;4999745;28;20026;-71
2022/10/19 01:45:00;;;;;;;1.70;1.20;;;23.80;59.60;;;;;;4999081;28;20022;-71
2022/10/19 01:47:32;;;;;;;1.55;1.10;;;23.80;59.70;;;;;;5001747;28;20137;-70
2022/10/19 01:50:15;;;;;;;1.60;1.20;;;23.80;59.60;;;;;;5001122;28;20037;-70
2022/10/19 01:52:41;;;;;;;1.70;1.13;;;23.80;59.70;;;;;;4997995;28;20117;-70
2022/10/19 01:55:11;;;;;;;1.50;1.00;;;23.80;59.70;;;;;;5000230;28;20034;-71
2022/10/19 01:57:44;;;;;;;1.73;1.10;;;23.80;59.60;;;;;;5000325;28;20520;-70
2022/10/19 02:00:11;;;;;;;2.50;1.20;;;23.80;59.60;;;;;;4997635;28;20129;-70
2022/10/19 02:02:41;;;;;;;1.20;0.90;;;23.80;59.60;;;;;;5000684;28;20462;-71
2022/10/19 02:05:09;;;;;;;1.42;1.10;;;23.80;59.70;;;;;;4998487;28;20500;-70
2022/10/19 02:07:36;;;;;;;1.50;1.00;;;23.80;59.60;;;;;;5000344;28;20025;-70
2022/10/19 02:10:02;;;;;;;1.38;1.15;;;23.80;59.70;;;;;;4979121;28;20030;-70
2022/10/19 02:12:31;;;;;;;2.13;1.10;;;23.80;59.70;;;;;;4995917;28;20077;-70
2022/10/19 02:15:01;;;;;;;1.90;1.10;;;23.80;59.70;;;;;;4981549;28;20116;-70
2022/10/19 02:17:34;;;;;;;1.98;1.20;;;23.80;59.70;;;;;;4981700;28;20039;-70
2022/10/19 02:20:00;;;;;;;1.25;1.00;;;23.70;59.60;;;;;;4980294;28;20113;-71
2022/10/19 02:22:26;;;;;;;1.90;1.08;;;23.70;59.60;;;;;;4990216;28;20037;-70
2022/10/19 02:24:52;;;;;;;1.10;0.90;;;23.70;59.60;;;;;;4979730;28;20545;-70
2022/10/19 02:27:18;;;;;;;1.27;0.90;;;23.70;59.60;;;;;;4980662;28;20030;-70
2022/10/19 02:29:44;;;;;;;1.70;1.20;;;23.70;59.60;;;;;;4976616;28;20034;-70
2022/10/19 02:32:10;;;;;;;1.33;1.00;;;23.70;59.60;;;;;;4980512;28;20035;-70
2022/10/19 02:34:37;;;;;;;1.80;1.10;;;23.70;59.60;;;;;;4981473;28;20035;-70
2022/10/19 02:37:03;;;;;;;1.55;1.00;;;23.70;59.60;;;;;;4977020;28;20562;-70
2022/10/19 02:39:29;;;;;;;1.42;1.00;;;23.70;59.60;;;;;;4973837;28;20029;-70
2022/10/19 02:42:18;;;;;;;1.77;1.00;;;23.70;59.60;;;;;;4979292;28;20028;-70
2022/10/19 02:45:20;;;;;;;1.90;1.15;;;23.70;59.60;;;;;;4979732;28;20515;-70
2022/10/19 02:47:57;;;;;;;1.75;1.00;;;23.70;59.60;;;;;;4980610;28;20029;-70
2022/10/19 02:50:23;;;;;;;2.25;1.30;;;23.70;60.00;;;;;;4977867;28;20431;-70
2022/10/19 02:52:49;;;;;;;1.27;0.93;;;23.70;59.60;;;;;;4978349;28;20041;-70
2022/10/19 02:55:14;;;;;;;0.95;0.85;;;23.70;59.70;;;;;;4976592;28;20038;-71
2022/10/19 02:57:40;;;;;;;1.20;0.93;;;23.70;59.70;;;;;;4981098;28;20030;-70
2022/10/19 03:00:07;;;;;;;1.48;1.08;;;23.70;59.60;;;;;;4976747;28;20103;-70
2022/10/19 03:02:32;;;;;;;1.67;1.10;;;23.70;59.70;;;;;;4980082;28;20055;-70
2022/10/19 03:04:58;;;;;;;1.67;1.10;;;23.70;59.60;;;;;;4978727;28;20086;-70
2022/10/19 03:07:24;;;;;;;1.70;1.10;;;23.70;59.60;;;;;;4977549;28;20213;-70
2022/10/19 03:09:49;;;;;;;1.50;1.05;;;23.70;59.70;;;;;;4979353;28;20069;-70
2022/10/19 03:12:16;;;;;;;1.38;1.00;;;23.70;59.70;;;;;;4976985;28;20026;-70
2022/10/19 03:14:42;;;;;;;1.65;1.00;;;23.70;59.70;;;;;;4979456;28;20081;-70
2022/10/19 03:17:08;;;;;;;1.40;1.00;;;23.60;59.60;;;;;;4993478;28;20051;-70
2022/10/19 03:19:34;;;;;;;1.35;0.90;;;23.70;60.20;;;;;;4997485;28;20473;-70
2022/10/19 03:22:00;;;;;;;1.40;1.00;;;23.60;59.60;;;;;;4991666;28;20592;-70
2022/10/19 03:24:25;;;;;;;1.65;1.13;;;23.70;59.70;;;;;;4997878;28;20018;-70
2022/10/19 03:26:51;;;;;;;1.02;0.90;;;23.60;59.60;;;;;;4996662;28;20409;-70
2022/10/19 03:29:17;;;;;;;1.70;1.10;;;23.70;59.70;;;;;;4983139;28;20132;-70
2022/10/19 03:31:42;;;;;;;1.20;0.90;;;23.60;59.60;;;;;;4999736;28;20176;-70
2022/10/19 03:34:08;;;;;;;1.33;1.10;;;23.60;59.60;;;;;;4994467;28;20451;-70
2022/10/19 03:36:36;;;;;;;1.63;0.90;;;23.60;59.60;;;;;;5000305;28;20389;-70
2022/10/19 03:39:04;;;;;;;1.42;1.00;;;23.60;59.60;;;;;;4998541;28;20022;-70
2022/10/19 03:41:33;;;;;;;1.13;0.90;;;23.60;59.60;;;;;;4983626;28;20022;-71
2022/10/19 03:43:59;;;;;;;1.20;0.90;;;23.60;59.60;;;;;;4982694;28;20061;-70
2022/10/19 03:46:25;;;;;;;1.20;0.90;;;23.60;59.60;;;;;;4965631;28;20418;-70
2022/10/19 03:48:51;;;;;;;1.25;0.93;;;23.60;59.60;;;;;;4981026;28;20031;-72
2022/10/19 03:51:19;;;;;;;1.60;0.90;;;23.60;59.60;;;;;;4997229;28;20030;-70
2022/10/19 03:53:46;;;;;;;1.00;0.90;;;23.60;59.60;;;;;;4995316;28;20037;-69
2022/10/19 03:56:18;;;;;;;1.05;0.80;;;23.60;59.60;;;;;;4994208;28;20500;-70
2022/10/19 03:58:47;;;;;;;1.13;0.85;;;23.60;60.10;;;;;;4993977;28;20426;-70
2022/10/19 04:01:18;;;;;;;1.27;1.00;;;23.60;59.60;;;;;;4995566;28;20084;-70
2022/10/19 04:03:44;;;;;;;1.38;1.00;;;23.60;59.70;;;;;;4998622;28;20868;-70
2022/10/19 04:06:16;;;;;;;1.08;0.90;;;23.60;59.70;;;;;;4994254;28;20029;-69
2022/10/19 04:08:43;;;;;;;1.80;1.10;;;23.60;59.70;;;;;;4990479;28;20193;-69
2022/10/19 04:11:12;;;;;;;1.38;0.85;;;23.60;59.70;;;;;;4991782;28;20072;-70
2022/10/19 04:13:38;;;;;;;1.20;0.98;;;23.60;59.70;;;;;;4999749;28;20031;-69
2022/10/19 04:16:05;;;;;;;1.35;0.95;;;23.60;59.70;;;;;;4998408;28;20064;-70
2022/10/19 04:18:30;;;;;;;1.35;0.90;;;23.60;59.70;;;;;;4980051;28;20050;-69
2022/10/19 04:21:02;;;;;;;1.40;0.90;;;23.60;59.70;;;;;;4999924;28;20029;-70
2022/10/19 04:23:30;;;;;;;1.38;0.90;;;23.60;59.80;;;;;;5001007;28;20066;-70
2022/10/19 04:26:03;;;;;;;1.40;1.00;;;23.50;59.70;;;;;;4998811;28;20088;-70
2022/10/19 04:28:29;;;;;;;1.38;0.90;;;23.60;59.80;;;;;;4997180;28;20513;-69
2022/10/19 04:30:55;;;;;;;1.60;1.00;;;23.50;59.80;;;;;;4993855;28;20494;-70
2022/10/19 04:33:21;;;;;;;1.00;0.90;;;23.60;59.80;;;;;;4996522;28;20030;-70
2022/10/19 04:35:47;;;;;;;1.75;0.93;;;23.50;59.80;;;;;;4994186;28;20030;-70
2022/10/19 04:38:12;;;;;;;1.17;1.00;;;23.50;59.80;;;;;;4997059;28;20019;-70
2022/10/19 04:40:38;;;;;;;1.30;1.00;;;23.50;59.80;;;;;;5003221;28;20057;-69
2022/10/19 04:43:04;;;;;;;1.60;0.90;;;23.50;59.80;;;;;;4997027;28;20504;-69
2022/10/19 04:45:31;;;;;;;1.85;1.00;;;23.50;59.70;;;;;;4996314;28;20092;-69
2022/10/19 04:47:56;;;;;;;1.50;0.93;;;23.50;59.80;;;;;;4994280;28;20036;-69
2022/10/19 04:50:23;;;;;;;1.15;0.90;;;23.50;59.80;;;;;;4996762;28;20109;-70
2022/10/19 04:52:49;;;;;;;1.73;1.10;;;23.50;59.70;;;;;;5002661;28;20102;-70
2022/10/19 04:55:14;;;;;;;2.10;1.13;;;23.50;59.80;;;;;;4998111;28;20085;-70
2022/10/19 04:57:40;;;;;;;2.03;1.20;;;23.50;59.80;;;;;;4999706;28;20036;-69
2022/10/19 05:00:06;;;;;;;1.98;1.00;;;23.50;59.80;;;;;;5002372;28;20339;-70
2022/10/19 05:02:32;;;;;;;1.60;1.00;;;23.50;59.80;;;;;;5002827;28;20022;-70
2022/10/19 05:04:57;;;;;;;1.85;1.02;;;23.50;59.90;;;;;;5002364;28;20096;-69
2022/10/19 05:07:23;;;;;;;1.83;1.00;;;23.50;59.90;;;;;;4999196;28;20049;-70
2022/10/19 05:09:49;;;;;;;1.50;0.90;;;23.50;59.90;;;;;;5001223;28;20021;-69
2022/10/19 05:12:14;;;;;;;3.22;1.20;;;23.50;59.90;;;;;;5000837;28;20026;-67
2022/10/19 05:14:40;;;;;;;1.35;0.98;;;23.50;60.30;;;;;;4995648;28;20385;-67
2022/10/19 05:17:05;;;;;;;1.80;1.00;;;23.60;60.90;;;;;;5000368;28;20408;-68
2022/10/19 05:19:31;;;;;;;1.60;1.13;;;23.80;60.70;;;;;;4999070;28;20026;-66
2022/10/19 05:21:56;;;;;;;1.27;0.85;;;24.00;60.40;;;;;;5003173;28;20455;-68
2022/10/19 05:24:22;;;;;;;1.83;0.80;;;24.20;60.10;;;;;;4989768;28;20034;-67
2022/10/19 05:26:48;;;;;;;1.27;0.80;;;24.30;59.80;;;;;;4991694;28;20074;-69
2022/10/19 05:29:14;;;;;;;1.40;0.80;;;24.50;59.40;;;;;;4989841;28;20061;-67
2022/10/19 05:31:40;;;;;;;1.88;1.02;;;24.60;59.20;;;;;;4988687;28;20129;-67
2022/10/19 05:34:05;;;;;;;1.30;0.77;;;24.70;59.00;;;;;;4982613;28;20554;-67
2022/10/19 05:36:36;;;;;;;1.80;1.00;;;24.80;58.80;;;;;;4997392;28;20065;-69
2022/10/19 05:39:16;;;;;;;1.55;0.85;;;24.90;58.60;;;;;;4989599;28;20018;-68
2022/10/19 05:41:46;;;;;;;1.88;0.80;;;24.90;58.00;;;;;;4997025;28;20497;-68
2022/10/19 05:44:17;;;;;;;1.08;0.80;;;24.90;57.90;;;;;;5003263;28;20413;-67
2022/10/19 05:46:44;;;;;;;2.88;1.00;;;24.90;58.30;;;;;;4997007;28;20038;-67
2022/10/19 05:49:14;;;;;;;1.90;0.90;;;25.10;58.00;;;;;;4983732;28;20079;-67
2022/10/19 05:51:40;;;;;;;1.52;0.82;;;25.30;57.40;;;;;;4996315;28;20394;-65
2022/10/19 05:54:06;;;;;;;0.88;0.70;;;25.40;57.00;;;;;;5000403;28;20026;-66
2022/10/19 05:56:32;;;;;;;1.92;0.90;;;25.40;56.80;;;;;;4998666;28;20029;-68
2022/10/19 05:59:01;;;;;;;1.90;0.80;;;25.40;56.90;;;;;;4999666;28;20027;-67
2022/10/19 06:01:28;;;;;;;1.52;0.80;;;25.30;56.80;;;;;;4997533;28;20122;-68
2022/10/19 06:03:58;;;;;;;1.25;0.90;;;25.30;57.10;;;;;;4978941;28;20026;-67
2022/10/19 06:06:25;;;;;;;1.70;1.00;;;25.40;57.00;;;;;;5001651;28;20082;-66
2022/10/19 06:08:52;;;;;;;1.75;1.10;;;25.40;57.00;;;;;;5001021;28;20026;-67
2022/10/19 06:11:20;;;;;;;2.13;1.10;;;25.40;56.80;;;;;;4984132;28;20508;-68
2022/10/19 06:13:49;;;;;;;2.23;1.00;;;25.40;56.70;;;;;;4993734;28;20030;-66
2022/10/19 06:16:17;;;;;;;1.90;1.10;;;25.40;56.70;;;;;;4992023;28;20054;-68
2022/10/19 06:18:43;;;;;;;1.25;0.98;;;25.40;56.60;;;;;;4999371;28;20036;-67
2022/10/19 06:21:17;;;;;;;2.00;1.02;;;25.40;56.90;;;;;;4994569;28;20029;-69
2022/10/19 06:23:43;;;;;;;2.10;1.05;;;25.60;56.50;;;;;;5000456;28;20439;-68
2022/10/19 06:26:11;;;;;;;1.35;0.90;;;25.60;56.30;;;;;;4963181;28;20554;-69
2022/10/19 06:28:38;;;;;;;2.00;1.30;;;25.60;56.40;;;;;;4997584;28;20076;-68
2022/10/19 06:31:05;;;;;;;1.67;1.00;;;25.60;56.20;;;;;;4999585;28;20034;-67
2022/10/19 06:33:31;;;;;;;1.83;0.80;;;25.60;56.20;;;;;;4982371;28;20031;-69
2022/10/19 06:36:05;;;;;;;1.63;1.10;;;25.60;56.20;;;;;;4998799;28;20031;-68
2022/10/19 06:38:30;;;;;;;1.63;1.00;;;25.60;56.30;;;;;;5000054;28;20026;-66
2022/10/19 06:40:59;;;;;;;1.67;0.80;;;25.70;56.30;;;;;;4983000;28;20334;-68
2022/10/19 06:43:25;;;;;;;1.48;0.88;;;25.70;56.10;;;;;;4997637;28;20029;-66
2022/10/19 06:45:51;;;;;;;1.60;1.00;;;25.80;56.10;;;;;;4996538;28;20053;-69
2022/10/19 06:48:16;;;;;;;1.75;0.95;;;25.80;56.00;;;;;;4967423;28;20164;-67
2022/10/19 06:50:42;;;;;;;2.05;1.00;;;25.80;56.00;;;;;;4993741;28;20338;-67
2022/10/19 06:53:08;;;;;;;1.85;1.05;;;25.80;56.00;;;;;;4981655;28;20034;-67
2022/10/19 06:55:33;;;;;;;1.83;1.00;;;25.80;56.00;;;;;;4995707;28;20030;-70
2022/10/19 06:58:00;;;;;;;1.10;0.85;;;25.80;56.00;;;;;;4989075;28;20096;-66
2022/10/19 07:00:27;;;;;;;2.25;1.00;;;25.80;55.90;;;;;;4996156;28;20046;-68
2022/10/19 07:02:52;;;;;;;2.15;1.10;;;25.80;55.80;;;;;;4999408;28;20586;-69
2022/10/19 07:05:18;;;;;;;2.47;1.10;;;25.80;55.30;;;;;;4998789;28;20054;-68
2022/10/19 07:07:44;;;;;;;1.98;0.90;;;25.80;55.20;;;;;;4986836;28;20133;-66
2022/10/19 07:10:10;;;;;;;1.17;0.90;;;25.80;55.20;;;;;;4995758;28;20145;-69
2022/10/19 07:12:35;;;;;;;3.03;0.95;;;25.80;55.40;;;;;;4999053;28;20057;-70
2022/10/19 07:15:01;;;;;;;1.27;0.80;;;25.80;55.40;;;;;;4996371;28;20105;-69
2022/10/19 07:17:27;;;;;;;1.60;1.00;;;25.80;55.50;;;;;;4998178;28;20044;-69
2022/10/19 07:19:53;;;;;;;2.08;0.80;;;25.80;55.50;;;;;;5000202;28;20133;-72
2022/10/19 07:22:19;;;;;;;1.02;0.73;;;25.80;55.50;;;;;;4999749;28;20481;-68
2022/10/19 07:24:45;;;;;;;1.25;0.90;;;25.80;55.60;;;;;;4996822;28;20018;-68
2022/10/19 07:27:10;;;;;;;2.03;1.00;;;25.90;55.70;;;;;;4998352;28;20041;-72
2022/10/19 07:29:36;;;;;;;1.55;0.90;;;25.90;55.70;;;;;;4982807;28;20378;-73
2022/10/19 07:32:01;;;;;;;1.13;0.85;;;25.90;55.70;;;;;;4994965;28;20041;-69
2022/10/19 07:34:27;;;;;;;2.13;0.88;;;25.90;55.70;;;;;;4994583;28;20062;-76
2022/10/19 07:36:53;;;;;;;1.83;1.00;;;25.90;55.70;;;;;;4989618;28;20038;-70
2022/10/19 07:39:20;;;;;;;1.83;1.00;;;25.90;55.70;;;;;;4983381;28;20029;-74
2022/10/19 07:41:46;;;;;;;1.50;0.90;;;25.90;55.60;;;;;;5001455;28;20029;-71
2022/10/19 07:44:12;;;;;;;1.45;0.90;;;26.00;55.70;;;;;;5001028;28;20038;-74
2022/10/19 07:46:38;;;;;;;1.55;0.88;;;26.00;55.70;;;;;;4999830;28;20473;-69
2022/10/19 07:49:08;;;;;;;1.80;0.85;;;26.00;55.70;;;;;;4996694;28;20101;-77
2022/10/19 07:51:35;;;;;;;1.23;0.80;;;26.00;55.70;;;;;;4998919;28;20026;-69
2022/10/19 07:54:00;;;;;;;1.40;0.95;;;26.00;55.70;;;;;;4992024;28;20450;-73
2022/10/19 07:56:27;;;;;;;1.77;0.95;;;26.00;55.70;;;;;;4993715;28;20112;-69
2022/10/19 07:58:55;;;;;;;1.95;0.80;;;26.00;55.60;;;;;;4992517;28;20045;-68
2022/10/19 08:01:28;;;;;;;1.48;0.80;;;26.00;55.70;;;;;;4993142;28;20097;-71
2022/10/19 08:03:55;;;;;;;1.58;1.02;;;26.00;55.60;;;;;;5000789;28;20029;-67
2022/10/19 08:06:23;;;;;;;3.35;1.10;;;26.00;55.50;;;;;;4981523;28;20481;-69
2022/10/19 08:08:49;;;;;;;1.40;1.00;;;26.00;55.10;;;;;;4997911;28;20056;-66
2022/10/19 08:11:30;;;;;;;2.10;1.08;;;26.00;54.90;;;;;;4999651;28;20034;-68
2022/10/19 08:13:58;;;;;;;2.03;1.00;;;26.00;54.80;;;;;;5003280;28;20018;-68
2022/10/19 08:16:32;;;;;;;1.40;0.80;;;26.00;55.30;;;;;;4996727;28;20042;-67
2022/10/19 08:19:00;;;;;;;2.00;1.00;;;26.00;54.90;;;;;;4999838;28;20034;-68
2022/10/19 08:21:27;;;;;;;1.10;0.90;;;26.00;54.90;;;;;;5003388;28;20027;-68
2022/10/19 08:23:52;;;;;;;1.85;1.08;;;26.00;54.90;;;;;;4982064;28;20451;-68
2022/10/19 08:26:19;;;;;;;2.00;1.00;;;26.00;55.50;;;;;;4984015;28;20034;-67
2022/10/19 08:28:44;;;;;;;2.42;1.15;;;25.90;55.00;;;;;;5001137;28;20481;-69
2022/10/19 08:31:16;;;;;;;1.83;0.98;;;25.90;55.00;;;;;;5002551;28;20117;-68
2022/10/19 08:33:41;;;;;;;1.80;1.00;;;25.90;55.00;;;;;;4996895;28;20033;-68
2022/10/19 08:36:09;;;;;;;1.98;1.00;;;25.90;55.10;;;;;;4995235;28;20358;-69
2022/10/19 08:38:35;;;;;;;1.63;1.00;;;25.90;55.10;;;;;;4995302;28;20485;-68
2022/10/19 08:41:20;;;;;;;1.10;0.90;;;25.90;55.10;;;;;;5003642;28;20080;-68
2022/10/19 08:44:24;;;;;;;1.63;0.90;;;25.90;55.10;;;;;;5000261;28;20025;-67
2022/10/19 08:47:17;;;;;;;1.48;1.02;;;25.90;55.20;;;;;;4968139;28;20046;-70
2022/10/19 08:49:44;;;;;;;1.60;0.90;;;25.90;55.20;;;;;;5001065;28;20033;-65
2022/10/19 08:52:16;;;;;;;1.10;0.90;;;25.90;55.20;;;;;;5002339;28;20045;-66
2022/10/19 08:54:59;;;;;;;1.02;0.85;;;25.80;55.20;;;;;;5000352;28;20034;-65
2022/10/19 08:57:44;;;;;;;1.23;0.90;;;25.90;55.30;;;;;;4998541;28;20113;-68
2022/10/19 09:00:16;;;;;;;1.70;1.02;;;25.90;55.30;;;;;;5002605;28;20437;-67
2022/10/19 09:02:57;;;;;;;1.52;1.00;;;25.80;55.30;;;;;;5002313;28;20041;-67
2022/10/19 09:05:41;;;;;;;1.75;1.00;;;25.80;55.30;;;;;;4999908;28;20386;-66
2022/10/19 09:08:09;;;;;;;1.20;1.00;;;25.80;55.30;;;;;;4999203;28;20022;-68
2022/10/19 09:10:42;;;;;;;1.33;1.00;;;25.80;55.30;;;;;;4996913;28;20501;-68
2022/10/19 09:13:19;;;;;;;1.48;0.90;;;25.80;55.30;;;;;;4995344;28;20026;-67
2022/10/19 09:15:47;;;;;;;1.65;1.00;;;25.80;55.40;;;;;;4998917;28;20527;-67
2022/10/19 09:18:28;;;;;;;1.42;0.90;;;25.80;55.40;;;;;;4995867;28;20027;-71
2022/10/19 09:21:20;;;;;;;1.42;0.90;;;25.80;56.00;;;;;;4999619;28;20025;-72
2022/10/19 09:23:59;;;;;;;1.75;0.93;;;25.80;55.40;;;;;;4999309;28;20034;-68
2022/10/19 09:26:48;;;;;;;1.77;1.00;;;25.80;55.40;;;;;;4999381;28;20084;-75
2022/10/19 09:29:23;;;;;;;1.85;1.00;;;25.80;55.50;;;;;;4991928;28;20071;-70
2022/10/19 09:31:53;;;;;;;1.77;0.90;;;25.80;55.50;;;;;;4988267;28;20663;-69
2022/10/19 09:34:44;;;;;;;2.13;1.00;;;25.80;55.50;;;;;;5001463;28;20748;-69
2022/10/19 09:37:11;;;;;;;1.00;0.90;;;25.80;55.50;;;;;;4991851;28;20124;-68
2022/10/19 09:39:37;;;;;;;1.35;0.90;;;25.80;55.50;;;;;;5001546;28;20094;-67
2022/10/19 09:42:28;;;;;;;1.88;1.10;;;25.80;55.50;;;;;;5001536;28;20390;-66
2022/10/19 09:44:55;;;;;;;1.80;1.00;;;25.80;55.50;;;;;;4997807;28;20027;-67
2022/10/19 09:47:37;;;;;;;1.20;0.90;;;25.80;55.60;;;;;;4991418;28;20516;-70
2022/10/19 09:50:22;;;;;;;1.70;1.10;;;25.80;55.70;;;;;;4997962;28;20513;-67
2022/10/19 09:52:52;;;;;;;1.88;1.10;;;25.80;55.60;;;;;;4997112;28;20027;-70
2022/10/19 09:55:26;;;;;;;1.40;0.90;;;25.80;55.60;;;;;;4995347;28;20434;-68
2022/10/19 09:58:19;;;;;;;1.85;1.10;;;25.80;55.60;;;;;;4996889;28;20084;-71
2022/10/19 10:00:46;;;;;;;1.92;1.00;;;25.80;55.50;;;;;;4965863;28;20030;-71
2022/10/19 10:03:22;;;;;;;0.93;0.80;;;25.80;55.60;;;;;;4997077;28;20380;-71
2022/10/19 10:05:49;;;;;;;2.75;1.10;;;25.80;55.60;;;;;;4990509;28;20019;-68
2022/10/19 10:08:19;;;;;;;1.50;0.85;;;25.80;55.60;;;;;;4988403;28;20038;-68
2022/10/19 10:10:55;;;;;;;1.63;1.05;;;25.80;56.10;;;;;;5000560;28;20026;-71
2022/10/19 10:13:24;;;;;;;2.00;1.00;;;25.80;55.70;;;;;;4999998;28;20018;-69
2022/10/19 10:15:58;;;;;;;1.48;1.00;;;25.80;55.60;;;;;;4997481;28;20133;-71
2022/10/19 10:18:26;;;;;;;1.05;0.80;;;25.80;55.60;;;;;;4997355;28;20450;-69
2022/10/19 10:21:12;;;;;;;1.88;0.90;;;25.80;55.70;;;;;;5001514;28;20494;-67
2022/10/19 10:23:39;;;;;;;1.67;1.00;;;25.80;55.60;;;;;;5002082;28;20052;-69
2022/10/19 10:26:16;;;;;;;1.55;0.90;;;25.80;55.60;;;;;;4998308;28;20051;-72
2022/10/19 10:28:50;;;;;;;1.15;0.82;;;25.80;55.60;;;;;;4995692;28;20351;-67
2022/10/19 10:31:21;;;;;;;1.90;1.15;;;25.80;55.60;;;;;;4975841;28;20038;-67
2022/10/19 10:34:00;;;;;;;1.77;0.95;;;25.80;55.70;;;;;;4999276;28;20029;-69
2022/10/19 10:36:27;;;;;;;;;;;25.80;55.70;;;;;;4981154;28;20112;-71
2022/10/19 10:38:59;;;;;;;1.20;0.95;;;25.80;55.80;;;;;;4995185;28;19910;-70
2022/10/19 10:41:27;;;;;;;1.20;0.90;;;25.80;55.70;;;;;;4980188;28;20033;-69
2022/10/19 10:44:07;;;;;;;1.08;0.82;;;25.80;55.80;;;;;;4989967;28;20025;-69
2022/10/19 10:46:36;;;;;;;1.63;0.70;;;25.80;55.80;;;;;;4996333;28;20412;-69
2022/10/19 10:49:05;;;;;;;1.17;0.90;;;25.70;55.80;;;;;;4992742;28;20029;-66
2022/10/19 10:51:39;;;;;;;1.35;0.80;;;25.70;55.80;;;;;;4995414;28;20042;-67
2022/10/19 10:54:21;;;;;;;1.95;0.90;;;25.80;55.90;;;;;;4997158;28;20034;-68
2022/10/19 10:56:55;;;;;;;1.58;1.23;;;25.80;55.80;;;;;;4992873;28;20109;-69
2022/10/19 10:59:27;;;;;;;1.48;0.90;;;25.80;55.90;;;;;;5001653;28;20112;-71
2022/10/19 11:02:16;;;;;;;1.42;0.90;;;25.80;55.90;;;;;;4999186;28;20342;-66
2022/10/19 11:04:50;;;;;;;1.52;0.82;;;25.80;55.90;;;;;;4995003;28;20049;-68
2022/10/19 11:07:18;;;;;;;1.63;1.02;;;25.80;55.80;;;;;;4998882;28;20057;-69
2022/10/19 11:09:53;;;;;;;1.02;0.80;;;25.80;55.80;;;;;;4982800;28;20038;-68
2022/10/19 11:12:30;;;;;;;1.40;0.90;;;25.80;55.70;;;;;;4964900;28;20062;-71
2022/10/19 11:15:08;;;;;;;1.58;0.93;;;25.80;55.70;;;;;;4996756;28;20038;-70
2022/10/19 11:17:37;;;;;;;1.20;0.90;;;25.80;55.80;;;;;;4997436;28;20362;-69
2022/10/19 11:20:06;;;;;;;1.45;0.98;;;25.80;55.80;;;;;;4994681;28;20485;-68
2022/10/19 11:23:05;;;;;;;1.75;1.05;;;25.80;55.80;;;;;;4997145;28;20026;-68
2022/10/19 11:25:50;;;;;;;;;;;25.80;55.80;;;;;;4992532;28;20034;-69
2022/10/19 11:28:44;;;;;;;1.60;1.00;;;25.80;55.80;;;;;;4997453;28;19959;-69
2022/10/19 11:31:21;;;;;;;2.67;1.00;;;25.90;55.90;;;;;;4994246;28;20440;-68
2022/10/19 11:34:02;;;;;;;1.17;0.82;;;25.90;55.90;;;;;;4992673;28;20347;-69
2022/10/19 11:36:59;;;;;;;2.40;1.08;;;25.90;55.90;;;;;;4987020;28;20053;-70
2022/10/19 11:39:36;;;;;;;1.45;1.00;;;25.90;55.80;;;;;;4998213;28;20027;-69
2022/10/19 11:42:12;;;;;;;2.00;0.90;;;25.90;55.90;;;;;;4997857;28;20029;-69
2022/10/19 11:45:10;;;;;;;1.98;1.10;;;25.90;55.90;;;;;;4997307;28;20033;-71
2022/10/19 11:47:54;;;;;;;1.10;0.90;;;25.90;55.90;;;;;;4989112;28;20050;-69
2022/10/19 11:50:22;;;;;;;1.25;0.80;;;25.90;55.90;;;;;;4994746;28;20439;-67
2022/10/19 11:53:11;;;;;;;1.60;0.90;;;26.00;56.00;;;;;;4997933;28;20029;-69
2022/10/19 11:55:46;;;;;;;1.50;0.98;;;26.00;56.00;;;;;;4999273;28;20126;-71
2022/10/19 11:58:49;;;;;;;2.05;0.98;;;26.00;56.00;;;;;;4995513;28;20026;-69
2022/10/19 12:01:44;;;;;;;0.93;0.80;;;26.00;56.00;;;;;;4995112;28;20101;-69
2022/10/19 12:04:35;;;;;;;1.33;0.80;;;26.00;55.90;;;;;;4997220;28;20033;-72
2022/10/19 12:07:34;;;;;;;1.63;0.93;;;26.00;55.90;;;;;;4981029;28;20040;-69
2022/10/19 12:10:21;;;;;;;1.42;1.00;;;26.00;55.80;;;;;;4996493;28;20469;-68
2022/10/19 12:12:50;;;;;;;1.05;0.88;;;26.00;55.90;;;;;;4996802;28;20458;-69
2022/10/19 12:15:22;;;;;;;1.05;0.73;;;26.00;55.80;;;;;;4996511;28;20533;-71
2022/10/19 12:17:51;;;;;;;1.70;0.93;;;26.00;55.80;;;;;;4996431;28;20030;-66
2022/10/19 12:20:20;;;;;;;1.15;0.90;;;26.10;55.80;;;;;;4977588;28;20153;-68
2022/10/19 12:22:48;;;;;;;1.25;0.95;;;26.00;55.70;;;;;;4982271;28;20030;-69
2022/10/19 12:25:15;;;;;;;1.65;0.90;;;26.00;55.80;;;;;;4977961;28;20030;-69
2022/10/19 12:27:45;;;;;;;1.27;1.00;;;26.10;56.40;;;;;;4995051;28;20450;-68
2022/10/19 12:30:20;;;;;;;2.58;1.00;;;26.10;55.90;;;;;;4996148;28;20426;-69
2022/10/19 12:33:04;;;;;;;1.20;0.90;;;26.10;56.00;;;;;;5001866;28;20038;-70
2022/10/19 12:36:01;;;;;;;1.27;0.82;;;26.10;55.90;;;;;;4997453;28;20050;-68
2022/10/19 12:38:43;;;;;;;1.33;0.90;;;26.10;55.90;;;;;;5000002;28;20033;-69
2022/10/19 12:41:14;;;;;;;1.30;0.90;;;26.10;55.90;;;;;;4999527;28;20026;-69
2022/10/19 12:44:08;;;;;;;1.40;0.90;;;26.10;55.90;;;;;;4997096;28;20102;-67
2022/10/19 12:47:07;;;;;;;1.20;1.00;;;26.10;55.90;;;;;;4997787;28;20420;-69
2022/10/19 12:49:33;;;;;;;1.35;1.00;;;26.10;55.80;;;;;;4995999;28;20023;-68
2022/10/19 12:52:00;;;;;;;1.35;0.80;;;26.20;55.90;;;;;;4995531;28;20560;-66
2022/10/19 12:54:28;;;;;;;1.15;0.80;;;26.10;56.30;;;;;;4976606;28;20030;-68
2022/10/19 12:56:56;;;;;;;1.05;0.90;;;26.10;55.80;;;;;;5001440;28;20054;-67
2022/10/19 12:59:30;;;;;;;0.95;0.80;;;26.10;55.80;;;;;;5004822;28;20021;-72
2022/10/19 13:01:56;;;;;;;1.17;0.90;;;26.10;55.80;;;;;;5002321;28;20040;-69
2022/10/19 13:04:30;;;;;;;1.40;1.00;;;26.10;55.80;;;;;;4999036;28;20122;-70
2022/10/19 13:06:56;;;;;;;1.50;0.98;;;26.10;55.70;;;;;;4998789;28;20030;-68
2022/10/19 13:09:38;;;;;;;1.10;0.80;;;26.10;55.80;;;;;;5003440;28;20093;-67